• Join FlightAware (Why Join?)
  • Login
  • US Flag 
03:22PM EDT


 

Airport Tracker/Info


-or-


 

Live Flight TrackerFlight Track Log ✈ DAL837 ✈ 11-Jul-2013 ✈ KATL - PHNL

Flight Track Log - Related Links

Times and Time Zones

All times are in EDT time to prevent confusion due to time zone crossing. See the DAL837 flight status page for this flight to view local times or setup timezone preferences in your user account.

Time Position Orientation Groundspeed Altitude Reporting Facility
EDT Latitude Longitude Course Direction KTS MPH feet Rate Location/Type
10:50AM 33.6390 -84.4270 149° Southeast 11 13  Level FlightAware
10:56AM 33.6380 -84.4270 180° South 19 22 60 Level FlightAware
10:56AM 33.6370 -84.4270 180° South 22 25 180 Level FlightAware
10:57AM 33.6360 -84.4230 107° East 28 32 180 Level FlightAware
10:57AM 33.6370 -84.4220 40° Northeast 20 23 180 Level FlightAware
10:57AM 33.6370 -84.4210 90° East 21 24 240 Level FlightAware
10:58AM 33.6370 -84.4150 90° East 24 28 240 Level FlightAware
10:58AM 33.6370 -84.4130 90° East 22 25 240 Level FlightAware
10:59AM 33.6370 -84.4110 90° East 26 30 240 Level FlightAware
10:59AM 33.6370 -84.4090 90° East 15 17 300 Level FlightAware
11:00AM 33.6370 -84.4080 90° East 21 24 360 Level FlightAware
11:00AM 33.6360 -84.4080 180° South 20 23 360 Level FlightAware
11:00AM 33.6360 -84.4070 90° East 20 23 420 Level FlightAware
11:01AM 33.6350 -84.4070 180° South 17 20 480 Level FlightAware
11:01AM 33.6350 -84.4080 270° West 14 16 540 Level FlightAware
11:03AM 33.6350 -84.4090 270° West 27 31 600 Level FlightAware
11:03AM 33.6350 -84.4180 270° West 110 127 1,500 Level FlightAware
11:04AM 33.6350 -84.4540 270° West 177 204 1,600 2,340 Climbing FlightAware
11:04AM 33.6350 -84.4830 270° West 180 207 2,700 1,500 Climbing FlightAware
11:05AM 33.6360 -84.5130 272° West 204 235 3,000 600 Climbing FlightAware
11:05AM 33.6360 -84.5380 270° West 229 264 3,200 660 Climbing FlightAware
11:05AM 33.6370 -84.5560 274° West 245 282 3,400 1,080 Climbing FlightAware
11:06AM 33.6440 -84.5980 281° West 271 312 4,000 1,740 Climbing FlightAware
11:06AM 33.6530 -84.6400 284° West 276 318 5,100 2,160 Climbing FlightAware
11:07AM 33.6590 -84.6670 285° West 281 323 5,700 1,980 Climbing FlightAware
11:07AM 33.6660 -84.7030 283° West 287 330 6,500 1,980 Climbing FlightAware
11:07AM 33.6700 -84.7220 284° West 289 333 6,900 2,040 Climbing FlightAware
11:08AM 33.6790 -84.7700 283° West 292 336 8,000 1,980 Climbing FlightAware
11:08AM 33.6830 -84.7920 282° West 295 339 8,400 1,800 Climbing FlightAware
11:08AM 33.6940 -84.8410 285° West 302 348 9,300 1,860 Climbing FlightAware
11:09AM 33.7060 -84.9050 283° West 305 351 10,600 1,320 Climbing FlightAware
11:10AM 33.7190 -84.9740 283° West 338 389 11,100 780 Climbing FlightAware
11:10AM 33.7350 -85.0520 284° West 366 421 11,700 1,020 Climbing FlightAware
11:11AM 33.7510 -85.1390 282° West 379 436 12,700 1,500 Climbing FlightAware
11:12AM 33.7710 -85.2460 283° West 387 445 14,100 1,680 Climbing FlightAware
11:13AM 33.7870 -85.3400 282° West 397 457 15,100 1,320 Climbing FlightAware
11:13AM 33.8010 -85.4230 281° West 403 464 16,000 1,380 Climbing FlightAware
11:14AM 33.8160 -85.5120 281° West 411 473 16,900 1,200 Climbing FlightAware
11:15AM 33.8340 -85.6240 281° West 420 483 17,800 660 Climbing FlightAware
11:16AM 33.8530 -85.7220 283° West 421 484 18,000 1,260 Climbing FlightAware
11:16AM 33.8930 -85.8190 296° West 424 488 19,700 1,140 Climbing FlightAware
11:18AM 33.9600 -86.0350 291° West 427 491 20,800 420 Climbing FlightAware
11:19AM 33.9810 -86.1040 290° West 427 491 20,800  Level FlightAware
11:19AM 34.0080 -86.1950 290° West 427 491 20,800  Level FlightAware
11:20AM 34.0290 -86.2660 290° West 427 491 20,800  Level FlightAware
11:21AM 34.0570 -86.3590 290° West 427 491 20,800 2,040 Level FlightAware
11:22AM 34.0481 -86.6664 290° West 450 518 25,500 1,680 Climbing Atlanta Center
11:25AM 34.0903 -87.0264 278° West 446 513 27,500 660 Climbing Memphis Center
11:26AM 34.1069 -87.1764 278° West 447 514 27,900 540 Climbing Memphis Center
11:27AM 34.1278 -87.3511 278° West 480 552 28,600 600 Climbing Memphis Center
11:28AM 34.1439 -87.5036 277° West 474 545 29,200 480 Climbing Memphis Center
11:29AM 34.1575 -87.6414 277° West 474 545 29,600 300 Climbing Memphis Center
11:30AM 34.1733 -87.7989 277° West 466 536 29,900 540 Climbing Memphis Center
11:31AM 34.1931 -87.9514 279° West 466 536 30,700 660 Climbing Memphis Center
11:32AM 34.2022 -88.1019 274° West 459 528 31,300 480 Climbing Memphis Center
11:33AM 34.2050 -88.2650 271° West 467 537 31,700 300 Climbing Memphis Center
11:34AM 34.2097 -88.4206 272° West 472 543 32,000 120 Climbing Memphis Center
11:35AM 34.2142 -88.5739 272° West 472 543 32,000  Level Memphis Center
11:36AM 34.2161 -88.7294 271° West 472 543 32,000 120 Level Memphis Center
11:37AM 34.2183 -88.8953 271° West 462 532 32,300 480 Climbing Memphis Center
11:38AM 34.2222 -89.0483 272° West 454 522 33,000 600 Climbing Memphis Center
11:39AM 34.2236 -89.2017 271° West 454 522 33,600 480 Climbing Memphis Center
11:40AM 34.2269 -89.3522 272° West 454 522 34,000 180 Climbing Memphis Center
11:41AM 34.2281 -89.5056 271° West 454 522 34,000  Level Memphis Center
11:42AM 34.2311 -89.6486 272° West 459 528 34,000  Level Memphis Center
11:43AM 34.2342 -89.8019 271° West 459 528 34,000  Level Memphis Center
11:44AM 34.2347 -89.9578 270° West 459 528 34,000  Level Memphis Center
11:45AM 34.2372 -90.1136 271° West 459 528 34,000  Level Memphis Center
11:46AM 34.2394 -90.2717 271° West 459 528 34,000  Level Memphis Center
11:47AM 34.2417 -90.4450 271° West 459 528 34,000  Level Memphis Center
11:48AM 34.2433 -90.5983 271° West 459 528 34,000  Level Memphis Center
11:49AM 34.2450 -90.7567 271° West 459 528 34,000  Level Memphis Center
11:50AM 34.2444 -90.9125 270° West 459 528 34,000  Level Memphis Center
11:51AM 34.2458 -91.0733 271° West 473 544 34,000  Level Memphis Center
11:52AM 34.2469 -91.2267 271° West 473 544 34,000  Level Memphis Center
11:53AM 34.2478 -91.3850 270° West 473 544 34,000  Level Memphis Center
11:54AM 34.2569 -91.5308 274° West 479 551 34,000  Level Memphis Center
11:55AM 34.2472 -91.6814 266° West 464 534 34,000  Level Memphis Center
11:56AM 34.2472 -91.8497 270° West 459 528 34,000  Level Memphis Center
11:57AM 34.2475 -92.0031 270° West 459 528 34,000  Level Memphis Center
11:58AM 34.2494 -92.1564 271° West 459 528 34,000  Level Memphis Center
11:59AM 34.2517 -92.2969 271° West 459 528 34,000  Level Memphis Center
12:00PM 34.2533 -92.4528 271° West 459 528 34,000  Level Memphis Center
12:01PM 34.2528 -92.6086 270° West 464 534 34,000 240 Level Memphis Center
12:06PM 34.2600 -93.5350 270° West 477 549 35,800 240 Climbing FlightAware
12:07PM 34.2600 -93.6380 270° West 477 549 35,800  Level FlightAware
12:08PM 34.2600 -93.7220 270° West 477 549 35,800  Level FlightAware
12:09PM 34.2600 -93.8310 270° West 477 549 35,800 120 Level FlightAware
12:09PM 34.2620 -94.0010 271° West 474 545 36,000 120 Climbing FlightAware
12:10PM 34.2700 -94.1230 275° West 473 544 36,000  Level FlightAware
12:11PM 34.2770 -94.2430 274° West 475 547 36,000  Level FlightAware
12:12PM 34.2830 -94.3640 273° West 475 547 36,000  Level FlightAware
12:12PM 34.2860 -94.4400 273° West 475 547 36,000  Level FlightAware
12:13PM 34.2970 -94.6070 275° West 474 545 36,000  Level FlightAware
12:14PM 34.3020 -94.7200 273° West 475 547 36,000  Level FlightAware
12:14PM 34.3070 -94.8150 274° West 476 548 36,000  Level FlightAware
12:15PM 34.3140 -94.9450 274° West 478 550 36,000  Level FlightAware
12:16PM 34.3190 -95.0600 273° West 480 552 36,000  Level FlightAware
12:17PM 34.3240 -95.1610 273° West 480 552 36,000  Level FlightAware
12:17PM 34.3290 -95.2780 273° West 479 551 36,000  Level FlightAware
12:18PM 34.3350 -95.3960 274° West 478 550 36,000  Level FlightAware
12:19PM 34.3400 -95.5090 273° West 478 550 36,000  Level FlightAware
12:19PM 34.3440 -95.6060 273° West 478 550 36,000  Level FlightAware
12:20PM 34.3490 -95.7140 273° West 477 549 36,000  Level FlightAware
12:21PM 34.3530 -95.8170 273° West 477 549 36,000  Level FlightAware
12:21PM 34.3580 -95.9370 273° West 478 550 36,000  Level FlightAware
12:22PM 34.3620 -96.0430 273° West 479 551 36,000  Level FlightAware
12:23PM 34.3670 -96.1660 273° West 479 551 36,000  Level FlightAware
12:24PM 34.3710 -96.2700 273° West 478 550 36,000  Level FlightAware
12:24PM 34.3750 -96.3760 273° West 476 548 36,000  Level FlightAware
12:25PM 34.3790 -96.4660 273° West 473 544 36,000  Level FlightAware
12:26PM 34.3830 -96.5750 273° West 472 543 36,000  Level FlightAware
12:26PM 34.3870 -96.6890 272° West 472 543 36,000  Level FlightAware
12:27PM 34.3910 -96.8130 272° West 472 543 36,000  Level FlightAware
12:28PM 34.3940 -96.9160 272° West 470 541 36,000  Level FlightAware
12:28PM 34.3980 -97.0330 272° West 470 541 36,000  Level FlightAware
12:29PM 34.4020 -97.1450 273° West 471 542 36,000  Level FlightAware
12:30PM 34.4040 -97.2330 272° West 472 543 36,000  Level FlightAware
12:30PM 34.4070 -97.3420 272° West 474 545 36,000  Level FlightAware
12:31PM 34.4100 -97.4360 272° West 474 545 36,000  Level FlightAware
12:32PM 34.4130 -97.5390 272° West 474 545 36,000  Level FlightAware
12:33PM 34.4180 -97.7320 272° West 475 547 36,000  Level FlightAware
12:33PM 34.4200 -97.8160 272° West 474 545 36,000  Level FlightAware
12:34PM 34.4230 -97.9370 272° West 473 544 36,000  Level FlightAware
12:35PM 34.4260 -98.0340 272° West 472 543 36,000  Level FlightAware
12:35PM 34.4290 -98.1550 272° West 470 541 36,000  Level FlightAware
12:36PM 34.4310 -98.2510 271° West 470 541 36,000  Level FlightAware
12:37PM 34.4320 -98.3320 271° West 469 540 36,000  Level FlightAware
12:37PM 34.4340 -98.4400 271° West 469 540 36,000  Level FlightAware
12:38PM 34.4350 -98.5490 271° West 469 540 36,000  Level FlightAware
12:39PM 34.4370 -98.6540 271° West 469 540 36,000  Level FlightAware
12:40PM 34.4380 -98.7370 271° West 469 540 36,000  Level FlightAware
12:40PM 34.4390 -98.8460 271° West 469 540 36,000  Level FlightAware
12:41PM 34.4410 -98.9270 272° West 469 540 36,000  Level FlightAware
12:42PM 34.4470 -99.1450 272° West 473 544 36,000  Level FlightAware
12:42PM 34.4470 -99.2440 270° West 473 544 36,000  Level FlightAware
12:43PM 34.4500 -99.3710 272° West 475 547 36,000  Level FlightAware
12:44PM 34.4510 -99.4920 271° West 473 544 36,000  Level FlightAware
12:45PM 34.4520 -99.5940 271° West 473 544 36,000  Level FlightAware
12:46PM 34.4540 -99.7380 271° West 472 543 36,000  Level FlightAware
12:46PM 34.4550 -99.8590 271° West 472 543 36,000  Level FlightAware
12:47PM 34.4560 -99.9810 271° West 472 543 36,000  Level FlightAware
12:48PM 34.4570 -100.1220 271° West 471 542 36,000  Level FlightAware
12:49PM 34.4580 -100.2350 271° West 473 544 36,000  Level FlightAware
12:49PM 34.4580 -100.3340 270° West 473 544 36,000  Level FlightAware
12:50PM 34.4580 -100.4450 270° West 473 544 36,000  Level FlightAware
12:51PM 34.4580 -100.5260 270° West 473 544 36,000  Level FlightAware
12:52PM 34.4580 -100.6930 270° West 473 544 36,000  Level FlightAware
12:53PM 34.4580 -100.8080 270° West 473 544 36,000  Level FlightAware
12:53PM 34.4580 -100.8890 270° West 473 544 36,000  Level FlightAware
12:54PM 34.4580 -101.0200 270° West 473 544 36,000  Level FlightAware
12:55PM 34.4580 -101.1550 270° West 473 544 36,000  Level FlightAware
12:56PM 34.4580 -101.2370 270° West 473 544 36,000  Level FlightAware
12:57PM 34.4580 -101.3630 270° West 473 544 36,000  Level FlightAware
12:58PM 34.4580 -101.4460 270° West 473 544 36,000  Level FlightAware
12:59PM 34.4580 -101.5820 270° West 473 544 36,000  Level FlightAware
01:00PM 34.4544 -102.0128 270° West 474 545 36,000  Level Albuquerque Center
01:01PM 34.4539 -102.1728 270° West 475 547 36,000  Level Albuquerque Center
01:02PM 34.4511 -102.3328 269° West 475 547 36,000  Level Albuquerque Center
01:03PM 34.4497 -102.5281 270° West 479 551 36,000  Level Albuquerque Center
01:04PM 34.4469 -102.6869 269° West 474 545 36,000  Level Albuquerque Center
01:05PM 34.4453 -102.8478 269° West 476 548 36,000  Level Albuquerque Center
01:06PM 34.4414 -103.0003 268° West 474 545 36,000  Level Albuquerque Center
01:07PM 34.4392 -103.1611 269° West 472 543 36,000  Level Albuquerque Center
01:08PM 34.4361 -103.3517 269° West 478 550 36,000  Level Albuquerque Center
01:09PM 34.4336 -103.5122 269° West 475 547 36,000  Level Albuquerque Center
01:10PM 34.4294 -103.6764 268° West 478 550 36,000  Level Albuquerque Center
01:11PM 34.4239 -103.8422 268° West 484 557 36,000  Level Albuquerque Center
01:12PM 34.4197 -104.0058 268° West 483 556 36,000  Level Albuquerque Center
01:13PM 34.4161 -104.1700 269° West 481 554 36,000  Level Albuquerque Center
01:14PM 34.4119 -104.3339 268° West 481 554 36,000  Level Albuquerque Center
01:15PM 34.4072 -104.4978 268° West 481 554 36,000  Level Albuquerque Center
01:16PM 34.4028 -104.6619 268° West 482 555 36,000  Level Albuquerque Center
01:17PM 34.3975 -104.8519 268° West 480 552 36,000  Level Albuquerque Center
01:19PM 34.3906 -105.0142 267° West 477 549 36,000  Level Albuquerque Center
01:20PM 34.3861 -105.1761 268° West 476 548 36,000  Level Albuquerque Center
01:21PM 34.3794 -105.3381 267° West 477 549 36,000  Level Albuquerque Center
01:26PM 34.3540 -106.2710 267° West 490 564 36,000  Level FlightAware
01:27PM 34.3500 -106.3760 267° West 490 564 36,000  Level FlightAware
01:28PM 34.3450 -106.4970 267° West 491 565 36,000  Level FlightAware
01:28PM 34.3420 -106.6010 268° West 492 566 36,000  Level FlightAware
01:29PM 34.3380 -106.7300 268° West 488 562 36,000  Level FlightAware
01:30PM 34.3340 -106.8430 268° West 486 559 36,000  Level FlightAware
01:30PM 34.3290 -106.9640 267° West 486 559 36,000  Level FlightAware
01:31PM 34.3250 -107.0770 268° West 486 559 36,000  Level FlightAware
01:32PM 34.3190 -107.2160 267° West 488 562 36,000  Level FlightAware
01:33PM 34.3130 -107.3630 267° West 488 562 36,000  Level FlightAware
01:34PM 34.3070 -107.5020 267° West 488 562 36,000  Level FlightAware
01:35PM 34.3030 -107.5860 267° West 488 562 36,000  Level FlightAware
01:35PM 34.2990 -107.6970 268° West 488 562 36,000  Level FlightAware
01:36PM 34.2950 -107.7810 267° West 488 562 36,000  Level FlightAware
01:37PM 34.2890 -107.9200 267° West 488 562 36,000  Level FlightAware
01:38PM 34.2840 -108.0380 267° West 488 562 36,000  Level FlightAware
01:38PM 34.2800 -108.1240 267° West 488 562 36,000  Level FlightAware
01:39PM 34.2760 -108.2070 267° West 488 562 36,000  Level FlightAware
01:40PM 34.2730 -108.2930 268° West 488 562 36,000  Level FlightAware
01:40PM 34.2680 -108.4070 267° West 488 562 36,000  Level FlightAware
01:41PM 34.2640 -108.4930 267° West 488 562 36,000  Level FlightAware
01:42PM 34.2600 -108.5760 267° West 488 562 36,000  Level FlightAware
01:42PM 34.2570 -108.6640 268° West 488 562 36,000  Level FlightAware
01:47PM 34.1970 -109.6880 266° West 481 554 36,000  Level FlightAware
01:48PM 34.1900 -109.7970 266° West 483 556 36,000  Level FlightAware
01:49PM 34.1840 -109.9070 266° West 484 557 36,000  Level FlightAware
01:49PM 34.1770 -110.0250 266° West 484 557 36,000  Level FlightAware
01:50PM 34.1690 -110.1430 265° West 480 552 36,000  Level FlightAware
01:51PM 34.1630 -110.2410 266° West 479 551 36,000  Level FlightAware
01:51PM 34.1570 -110.3390 266° West 480 552 36,000  Level FlightAware
01:52PM 34.1500 -110.4580 266° West 480 552 36,000  Level FlightAware
01:53PM 34.1430 -110.5660 266° West 482 555 36,000  Level FlightAware
01:53PM 34.1350 -110.6790 265° West 481 554 36,000  Level FlightAware
01:54PM 34.1280 -110.7940 266° West 479 551 36,000  Level FlightAware
01:55PM 34.1200 -110.9020 265° West 478 550 36,000  Level FlightAware
01:55PM 34.1130 -111.0130 266° West 477 549 36,000  Level FlightAware
01:56PM 34.1050 -111.1270 265° West 478 550 36,000  Level FlightAware
01:57PM 34.0970 -111.2310 265° West 479 551 36,000  Level FlightAware
01:58PM 34.0890 -111.3530 266° West 476 548 36,000  Level FlightAware
01:58PM 34.0810 -111.4600 265° West 474 545 36,000  Level FlightAware
01:59PM 34.0730 -111.5750 265° West 473 544 36,000  Level FlightAware
02:00PM 34.0650 -111.6740 264° West 475 547 36,000  Level FlightAware
02:00PM 34.0570 -111.7790 265° West 476 548 36,000  Level FlightAware
02:01PM 34.0500 -111.8850 265° West 477 549 36,000  Level FlightAware
02:02PM 34.0420 -111.9900 265° West 476 548 36,000  Level FlightAware
02:02PM 34.0320 -112.1120 264° West 475 547 36,000  Level FlightAware
02:03PM 34.0240 -112.2170 265° West 476 548 36,000  Level FlightAware
02:04PM 34.0150 -112.3240 264° West 478 550 36,000  Level FlightAware
02:05PM 34.0060 -112.4390 265° West 478 550 36,000  Level FlightAware
02:05PM 33.9970 -112.5530 265° West 478 550 36,000  Level FlightAware
02:06PM 33.9880 -112.6570 264° West 478 550 36,000  Level FlightAware
02:07PM 33.9780 -112.7780 264° West 478 550 36,000  Level FlightAware
02:07PM 33.9690 -112.8860 264° West 478 550 36,000  Level FlightAware
02:08PM 33.9600 -112.9970 264° West 479 551 36,000  Level FlightAware
02:09PM 33.9500 -113.1070 264° West 479 551 36,000  Level FlightAware
02:09PM 33.9400 -113.2230 264° West 479 551 36,000 120 Level FlightAware
02:10PM 33.9310 -113.3310 264° West 480 552 36,200 360 Climbing FlightAware
02:10PM 33.9260 -113.3890 264° West 480 552 36,400 540 Climbing FlightAware
02:11PM 33.9180 -113.4800 264° West 477 549 36,800 540 Climbing FlightAware
02:12PM 33.9070 -113.6020 264° West 475 547 37,200 480 Climbing FlightAware
02:13PM 33.8960 -113.7170 263° West 475 547 37,500 300 Climbing FlightAware
02:13PM 33.8850 -113.8370 264° West 477 549 37,700 300 Climbing FlightAware
02:14PM 33.8780 -113.9210 264° West 477 549 37,900 180 Climbing FlightAware
02:15PM 33.8670 -114.0370 264° West 477 549 38,000 60 Climbing FlightAware
02:15PM 33.8560 -114.1480 263° West 475 547 38,000  Level FlightAware
02:16PM 33.8450 -114.2650 264° West 474 545 38,000  Level FlightAware
02:17PM 33.8280 -114.4260 263° West 474 545 38,000  Level FlightAware
02:18PM 33.8160 -114.5680 264° West 481 554 38,000  Level FlightAware
02:19PM 33.8030 -114.6940 263° West 481 554 38,000  Level FlightAware
02:20PM 33.7920 -114.8030 263° West 481 554 38,000  Level FlightAware
02:20PM 33.7840 -114.8790 263° West 481 554 38,000  Level FlightAware
02:21PM 33.7760 -114.9630 263° West 481 554 38,000  Level FlightAware
02:22PM 33.7640 -115.0740 263° West 481 554 38,000  Level FlightAware
02:22PM 33.7560 -115.1500 263° West 481 554 38,000  Level FlightAware
02:23PM 33.7480 -115.2340 263° West 481 554 38,000  Level FlightAware
02:24PM 33.7370 -115.3420 263° West 481 554 38,000  Level FlightAware
02:24PM 33.7290 -115.4240 263° West 481 554 38,000  Level FlightAware
02:25PM 33.7200 -115.5070 263° West 481 554 38,000  Level FlightAware
02:26PM 33.6900 -115.7870 263° West 475 547 38,000  Level FlightAware
02:26PM 33.6790 -115.8910 263° West 474 545 38,000  Level FlightAware
02:27PM 33.6660 -116.0080 262° West 473 544 38,000  Level FlightAware
02:27PM 33.6590 -116.0670 262° West 473 544 38,000  Level FlightAware
02:28PM 33.6440 -116.2020 262° West 474 545 38,000  Level FlightAware
02:29PM 33.6330 -116.3010 262° West 473 544 38,000  Level FlightAware
02:30PM 33.6200 -116.4130 262° West 472 543 38,000  Level FlightAware
02:30PM 33.6090 -116.5150 263° West 474 545 38,000  Level FlightAware
02:31PM 33.5960 -116.6270 262° West 475 547 38,000  Level FlightAware
02:32PM 33.5830 -116.7340 262° West 476 548 38,000  Level FlightAware
02:32PM 33.5710 -116.8380 262° West 478 550 38,000  Level FlightAware
02:33PM 33.5590 -116.9410 262° West 478 550 38,000  Level FlightAware
02:34PM 33.5460 -117.0490 262° West 479 551 38,000  Level FlightAware
02:34PM 33.5330 -117.1620 262° West 480 552 38,000  Level FlightAware
02:35PM 33.5200 -117.2700 262° West 480 552 38,000  Level FlightAware
02:36PM 33.5060 -117.3800 261° West 480 552 38,000  Level FlightAware
02:36PM 33.4930 -117.4920 262° West 481 554 38,000  Level FlightAware
02:37PM 33.4820 -117.5790 261° West 479 551 38,000  Level FlightAware
02:38PM 33.4670 -117.7040 262° West 480 552 38,000  Level FlightAware
02:38PM 33.4530 -117.8100 261° West 480 552 38,000  Level FlightAware
02:39PM 33.4410 -117.9040 261° West 479 551 38,000  Level FlightAware
02:40PM 33.4280 -118.0080 262° West 478 550 38,000  Level FlightAware
02:40PM 33.4150 -118.1140 262° West 477 549 38,000  Level FlightAware
02:41PM 33.4020 -118.2170 261° West 476 548 38,000  Level FlightAware
02:42PM 33.3760 -118.3320 255° West 469 540 38,000  Level FlightAware
02:43PM 33.3360 -118.4370 246° West 465 535 38,000  Level FlightAware
02:43PM 33.2890 -118.5260 238° Southwest 460 529 38,000  Level FlightAware
02:44PM 33.2450 -118.5900 231° Southwest 458 527 38,000  Level FlightAware
02:45PM 33.1820 -118.6730 228° Southwest 459 528 38,000  Level FlightAware
02:45PM 33.1260 -118.7480 228° Southwest 458 527 38,000  Level FlightAware
02:46PM 33.0750 -118.8150 228° Southwest 458 527 38,000  Level FlightAware
02:47PM 33.0130 -118.8960 228° Southwest 458 527 38,000  Level FlightAware
02:47PM 32.9520 -118.9750 227° Southwest 457 526 38,000  Level FlightAware
02:48PM 32.9000 -119.0440 228° Southwest 457 526 38,000  Level FlightAware
02:48PM 32.8500 -119.1080 227° Southwest 457 526 38,000  Level FlightAware
02:49PM 32.7680 -119.2150 228° Southwest 457 526 38,000  Level FlightAware
02:50PM 32.7100 -119.2900 227° Southwest 457 526 38,000  Level FlightAware
02:51PM 32.6480 -119.3700 227° Southwest 458 527 38,000  Level FlightAware
02:51PM 32.5950 -119.4390 228° Southwest 458 527 38,000  Level FlightAware
02:53PM 32.5040 -119.5550 227° Southwest 457 526 38,000  Level FlightAware
02:53PM 32.4590 -119.6210 231° Southwest 461 531 38,000  Level FlightAware
02:54PM 32.4050 -119.7170 236° Southwest 461 531 38,000  Level FlightAware
02:54PM 32.3590 -119.8010 237° Southwest 460 529 38,000  Level FlightAware
02:55PM 32.3100 -119.8880 236° Southwest 457 526 38,000  Level FlightAware
02:56PM 32.2620 -119.9740 237° Southwest 456 525 38,000  Level FlightAware
02:56PM 32.2160 -120.0560 236° Southwest 455 524 38,000  Level FlightAware
02:57PM 32.1710 -120.1360 236° Southwest 456 525 38,000  Level FlightAware
02:58PM 32.1220 -120.2210 236° Southwest 457 526 38,000  Level FlightAware
02:58PM 32.0750 -120.3060 237° Southwest 455 524 38,000  Level FlightAware
02:59PM 32.0080 -120.4320 238° Southwest 455 524 38,000  Level FlightAware
03:00PM 31.9670 -120.5200 241° Southwest 455 524 38,000  Level FlightAware
03:01PM 31.9060 -120.6520 241° Southwest 454 522 38,000  Level FlightAware
03:02PM 31.8390 -120.7950 241° Southwest 454 522 38,000  Level FlightAware
03:03PM 31.8080 -120.8620 241° Southwest 454 522 38,000  Level FlightAware
03:04PM 31.7550 -120.9740 241° Southwest 453 521 38,000  Level FlightAware
03:05PM 31.6860 -121.1220 241° Southwest 454 522 38,100 60 Climbing FlightAware
03:06PM 31.6450 -121.2070 240° Southwest 454 522 38,200 60 Climbing FlightAware
03:06PM 31.6250 -121.2510 242° Southwest 454 522 38,200  Level FlightAware
03:07PM 31.5930 -121.3170 240° Southwest 454 522 38,200  Level FlightAware
03:07PM 31.5620 -121.3830 241° Southwest 454 522 38,200  Level FlightAware
03:08PM 31.5220 -121.4680 241° Southwest 454 522 38,200  Level FlightAware
03:09PM 31.4700 -121.5790 241° Southwest 454 522 38,200  Level FlightAware
03:10PM 31.4390 -121.6450 241° Southwest 454 522 38,200  Level FlightAware
03:10PM 31.3970 -121.7330 241° Southwest 454 522 38,200  Level FlightAware
03:11PM 31.3600 -121.8120 241° Southwest 454 522 38,200  Level FlightAware
03:12PM 31.3290 -121.8770 241° Southwest 454 522 38,200  Level FlightAware
03:12PM 31.2870 -121.9650 241° Southwest 454 522 38,200  Level FlightAware
03:13PM 31.2550 -122.0330 241° Southwest 454 522 38,200  Level FlightAware
03:14PM 31.2230 -122.1000 241° Southwest 454 522 38,200  Level FlightAware
03:15PM 31.1810 -122.1880 241° Southwest 454 522 38,200 60 Level FlightAware
03:19PM 31.1063 -122.7678 262° West  Level Estimated
03:20PM 31.0871 -122.9132 261° West  Level Estimated
03:21PM 31.0678 -123.0585 261° West  Level Estimated
03:22PM 31.0483 -123.2038 261° West  Level Estimated
03:22PM 31.1333 -123.5500 256° West 437 503 39,000  Level Oakland Oceanic (ODAPS)
03:23PM 31.0286 -123.3491 261° West  Level Estimated
03:23PM 31.1167 -123.6333 256° West 435 501 39,000  Level Oakland Oceanic (ODAPS)
03:24PM 31.0088 -123.4942 261° West  Level Estimated
03:25PM 30.9888 -123.6394 261° West  Level Estimated
03:26PM 30.9687 -123.7844 261° West  Level Estimated
03:27PM 30.9484 -123.9294 261° West  Level Estimated
03:28PM 30.9183 -124.0730 256° West  Level FlightAware Approximate
03:29PM 30.9353 -124.4521 255° West 435 501 39,000  Level FlightAware Transoceanic
03:30PM 30.9045 -124.5882 255° West 435 501 39,000  Level FlightAware Transoceanic
03:31PM 30.8736 -124.7243 255° West 435 501 39,000  Level FlightAware Transoceanic
03:32PM 30.8426 -124.8603 255° West 435 501 39,000  Level FlightAware Transoceanic
03:33PM 30.8115 -124.9962 255° West 435 501 39,000  Level FlightAware Transoceanic
03:34PM 30.7802 -125.1320 255° West 435 501 39,000  Level FlightAware Transoceanic
03:35PM 30.7487 -125.2677 255° West 435 501 39,000  Level FlightAware Transoceanic
03:36PM 30.7171 -125.4033 255° West 435 501 39,000  Level FlightAware Transoceanic
03:37PM 30.6854 -125.5388 255° West 435 501 39,000  Level FlightAware Transoceanic
03:37PM 30.6833 -125.5500 255° West 432 497 39,000  Level Oakland Oceanic (ODAPS)
03:38PM 30.6535 -125.6743 255° West 435 501 39,000  Level FlightAware Transoceanic
03:39PM 30.6215 -125.8096 255° West 435 501 39,000  Level FlightAware Transoceanic
03:40PM 30.5894 -125.9449 255° West 435 501 39,000  Level FlightAware Transoceanic
03:41PM 30.5571 -126.0801 254° West 435 501 39,000  Level FlightAware Transoceanic
03:42PM 30.5247 -126.2152 254° West 435 501 39,000  Level FlightAware Transoceanic
03:43PM 30.4903 -126.3597 254° West 432 497 39,000  Level FlightAware Transoceanic
03:44PM 30.4576 -126.4943 254° West 432 497 39,000  Level FlightAware Transoceanic
03:45PM 30.4248 -126.6288 254° West 432 497 39,000  Level FlightAware Transoceanic
03:46PM 30.3919 -126.7633 254° West 432 497 39,000  Level FlightAware Transoceanic
03:47PM 30.3588 -126.8976 254° West 432 497 39,000  Level FlightAware Transoceanic
03:48PM 30.3256 -127.0319 254° West 432 497 39,000  Level FlightAware Transoceanic
03:49PM 30.2922 -127.1661 254° West 432 497 39,000  Level FlightAware Transoceanic
03:50PM 30.2587 -127.3001 254° West 432 497 39,000  Level FlightAware Transoceanic
03:51PM 30.2251 -127.4341 254° West 432 497 39,000  Level FlightAware Transoceanic
03:51PM 30.2333 -127.3833 254° West 424 488 39,000  Level Oakland Oceanic (ODAPS)
03:52PM 30.1913 -127.5680 254° West 432 497 39,000  Level FlightAware Transoceanic
03:53PM 30.1574 -127.7019 254° West 432 497 39,000  Level FlightAware Transoceanic
03:54PM 30.1234 -127.8356 254° West 432 497 39,000  Level FlightAware Transoceanic
03:55PM 30.0893 -127.9692 253° West 432 497 39,000  Level FlightAware Transoceanic
03:56PM 30.0549 -128.1027 253° West 432 497 39,000  Level FlightAware Transoceanic
03:57PM 30.0346 -128.1678 253° West 424 488 39,000  Level FlightAware Transoceanic
03:58PM 30.0010 -128.2982 253° West 424 488 39,000  Level FlightAware Transoceanic
03:59PM 29.9673 -128.4286 253° West 424 488 39,000  Level FlightAware Transoceanic
04:00PM 29.9335 -128.5588 253° West 424 488 39,000  Level FlightAware Transoceanic
04:01PM 29.8995 -128.6890 253° West 424 488 39,000  Level FlightAware Transoceanic
04:02PM 29.8654 -128.8191 253° West 424 488 39,000  Level FlightAware Transoceanic
04:03PM 29.8312 -128.9491 253° West 424 488 39,000  Level FlightAware Transoceanic
04:04PM 29.7969 -129.0789 253° West 424 488 39,000  Level FlightAware Transoceanic
04:04PM 29.7667 -129.1833 253° West 422 486 39,000  Level Oakland Oceanic (ODAPS)
04:05PM 29.7624 -129.2088 253° West 424 488 39,000  Level FlightAware Transoceanic
04:06PM 29.7278 -129.3385 253° West 424 488 39,000  Level FlightAware Transoceanic
04:07PM 29.6931 -129.4681 253° West 424 488 39,000  Level FlightAware Transoceanic
04:08PM 29.6582 -129.5977 253° West 424 488 39,000  Level FlightAware Transoceanic
04:09PM 29.6233 -129.7271 253° West 424 488 39,000  Level FlightAware Transoceanic
04:10PM 29.5882 -129.8565 253° West 424 488 39,000  Level FlightAware Transoceanic
04:11PM 29.5555 -129.9713 253° West 422 486 39,000  Level FlightAware Transoceanic
04:12PM 29.5198 -130.1023 253° West 422 486 39,000  Level FlightAware Transoceanic
04:13PM 29.4840 -130.2332 253° West 422 486 39,000  Level FlightAware Transoceanic
04:14PM 29.4481 -130.3640 252° West 422 486 39,000  Level FlightAware Transoceanic
04:15PM 29.4121 -130.4947 252° West 422 486 39,000  Level FlightAware Transoceanic
04:16PM 29.3759 -130.6253 252° West 422 486 39,000  Level FlightAware Transoceanic
04:17PM 29.3396 -130.7559 252° West 422 486 39,000  Level FlightAware Transoceanic
04:18PM 29.3032 -130.8863 252° West 422 486 39,000  Level FlightAware Transoceanic
04:18PM 29.2833 -130.9667 249° West 358 412 39,000  Level Oakland Oceanic (ODAPS)
04:19PM 29.2667 -131.0167 252° West 422 486 39,000  Level FlightAware Transoceanic
04:19PM 29.2667 -131.0167 252° West 440 506 39,000  Level Oakland Oceanic (ODAPS)
04:20PM 29.2289 -131.1500 252° West 422 486 39,000  Level FlightAware Transoceanic
04:21PM 29.1910 -131.2832 252° West 422 486 39,000  Level FlightAware Transoceanic
04:22PM 29.1529 -131.4163 252° West 422 486 39,000  Level FlightAware Transoceanic
04:23PM 29.1147 -131.5493 252° West 422 486 39,000  Level FlightAware Transoceanic
04:24PM 29.0764 -131.6822 252° West 422 486 39,000  Level FlightAware Transoceanic
04:25PM 29.0379 -131.8150 252° West 440 506 39,000  Level FlightAware Transoceanic
04:26PM 28.9994 -131.9477 252° West 440 506 39,000  Level FlightAware Transoceanic
04:27PM 28.9606 -132.0804 252° West 440 506 39,000  Level FlightAware Transoceanic
04:28PM 28.9218 -132.2129 251° West 440 506 39,000  Level FlightAware Transoceanic
04:29PM 28.8828 -132.3453 251° West 440 506 39,000  Level FlightAware Transoceanic
04:30PM 28.8437 -132.4776 251° West 440 506 39,000  Level FlightAware Transoceanic
04:31PM 28.8045 -132.6098 251° West 440 506 39,000  Level FlightAware Transoceanic
04:32PM 28.7652 -132.7419 251° West 440 506 39,000  Level FlightAware Transoceanic
04:32PM 28.7667 -132.7500 251° West 432 497 39,000  Level Oakland Oceanic (ODAPS)
04:33PM 28.7257 -132.8739 251° West 440 506 39,000  Level FlightAware Transoceanic
04:34PM 28.6861 -133.0059 251° West 440 506 39,000  Level FlightAware Transoceanic
04:35PM 28.6463 -133.1377 251° West 440 506 39,000  Level FlightAware Transoceanic
04:36PM 28.6064 -133.2694 251° West 440 506 39,000  Level FlightAware Transoceanic
04:37PM 28.5664 -133.4010 251° West 440 506 39,000  Level FlightAware Transoceanic
04:38PM 28.5263 -133.5325 251° West 440 506 39,000  Level FlightAware Transoceanic
04:39PM 28.4939 -133.6493 251° West 432 497 39,000  Level FlightAware Transoceanic
04:40PM 28.4544 -133.7774 251° West 432 497 39,000  Level FlightAware Transoceanic
04:41PM 28.4148 -133.9054 251° West 432 497 39,000  Level FlightAware Transoceanic
04:42PM 28.3751 -134.0333 251° West 432 497 39,000  Level FlightAware Transoceanic
04:43PM 28.3353 -134.1611 250° West 432 497 39,000  Level FlightAware Transoceanic
04:44PM 28.2954 -134.2888 250° West 432 497 39,000  Level FlightAware Transoceanic
04:45PM 28.2553 -134.4164 250° West 432 497 39,000  Level FlightAware Transoceanic
04:46PM 28.2152 -134.5439 250° West 432 497 39,000  Level FlightAware Transoceanic
04:46PM 28.2333 -134.4833 250° West 425 489 39,000  Level Oakland Oceanic (ODAPS)
04:47PM 28.1749 -134.6714 250° West 432 497 39,000  Level FlightAware Transoceanic
04:48PM 28.1345 -134.7987 250° West 432 497 39,000  Level FlightAware Transoceanic
04:49PM 28.0939 -134.9259 250° West 432 497 39,000  Level FlightAware Transoceanic
04:50PM 28.0533 -135.0530 250° West 432 497 39,000  Level FlightAware Transoceanic
04:51PM 28.0125 -135.1801 250° West 432 497 39,000  Level FlightAware Transoceanic
04:52PM 27.9946 -135.2334 250° West 425 489 39,000  Level FlightAware Transoceanic
04:53PM 27.9545 -135.3580 250° West 425 489 39,000  Level FlightAware Transoceanic
04:54PM 27.9142 -135.4826 250° West 425 489 39,000  Level FlightAware Transoceanic
04:55PM 27.8738 -135.6071 250° West 425 489 39,000  Level FlightAware Transoceanic
04:56PM 27.8333 -135.7315 250° West 425 489 39,000  Level FlightAware Transoceanic
04:57PM 27.7927 -135.8558 250° West 425 489 39,000  Level FlightAware Transoceanic
04:58PM 27.7519 -135.9801 250° West 425 489 39,000  Level FlightAware Transoceanic
04:59PM 27.7111 -136.1042 250° West 425 489 39,000  Level FlightAware Transoceanic
05:00PM 27.6701 -136.2282 250° West 425 489 39,000  Level FlightAware Transoceanic
05:00PM 27.6667 -136.2167 250° West 421 484 39,000  Level Oakland Oceanic (ODAPS)
05:01PM 27.6290 -136.3521 249° West 425 489 39,000  Level FlightAware Transoceanic
05:02PM 27.5879 -136.4760 249° West 425 489 39,000  Level FlightAware Transoceanic
05:03PM 27.5466 -136.5997 249° West 425 489 39,000  Level FlightAware Transoceanic
05:04PM 27.5052 -136.7234 249° West 425 489 39,000  Level FlightAware Transoceanic
05:05PM 27.4637 -136.8470 249° West 425 489 39,000  Level FlightAware Transoceanic
05:06PM 27.4200 -136.9632 249° West 421 484 39,000  Level FlightAware Transoceanic
05:07PM 27.3785 -137.0873 249° West 421 484 39,000  Level FlightAware Transoceanic
05:08PM 27.3368 -137.2113 249° West 421 484 39,000  Level FlightAware Transoceanic
05:09PM 27.2951 -137.3352 249° West 421 484 39,000  Level FlightAware Transoceanic
05:10PM 27.2533 -137.4590 249° West 421 484 39,000  Level FlightAware Transoceanic
05:11PM 27.2113 -137.5828 249° West 421 484 39,000  Level FlightAware Transoceanic
05:12PM 27.1693 -137.7064 249° West 421 484 39,000  Level FlightAware Transoceanic
05:13PM 27.1271 -137.8299 249° West 421 484 39,000  Level FlightAware Transoceanic
05:14PM 27.0849 -137.9534 249° West 421 484 39,000  Level FlightAware Transoceanic
05:14PM 27.0833 -137.9500 250° West 414 476 39,000  Level Oakland Oceanic (ODAPS)
05:15PM 27.0425 -138.0767 249° West 421 484 39,000  Level FlightAware Transoceanic
05:16PM 27.0000 -138.2000 249° West 421 484 39,000 600 Level FlightAware Transoceanic
05:16PM 27.0000 -138.2000 249° West 438 504 40,000  Climbing Oakland Oceanic (ODAPS)
05:17PM 26.9542 -138.3307 249° West 421 484 39,000 -780 Descending FlightAware Transoceanic
05:18PM 26.9084 -138.4613 248° West 421 484 39,000  Level FlightAware Transoceanic
05:19PM 26.8624 -138.5919 248° West 421 484 39,000  Level FlightAware Transoceanic
05:20PM 26.8162 -138.7223 248° West 414 476 39,000  Level FlightAware Transoceanic
05:21PM 26.7700 -138.8526 248° West 414 476 39,000 480 Level FlightAware Transoceanic
05:22PM 26.7288 -138.9683 248° West 438 504 40,000 480 Climbing FlightAware Transoceanic
05:23PM 26.6832 -139.0960 248° West 438 504 40,000  Level FlightAware Transoceanic
05:24PM 26.6375 -139.2236 248° West 438 504 40,000  Level FlightAware Transoceanic
05:25PM 26.5917 -139.3511 248° West 438 504 40,000  Level FlightAware Transoceanic
05:26PM 26.5457 -139.4785 248° West 438 504 40,000  Level FlightAware Transoceanic
05:27PM 26.4996 -139.6058 248° West 438 504 40,000  Level FlightAware Transoceanic
05:28PM 26.4535 -139.7330 248° West 438 504 40,000  Level FlightAware Transoceanic
05:28PM 26.4667 -139.6833 248° West 439 505 40,000  Level Oakland Oceanic (ODAPS)
05:29PM 26.4072 -139.8600 248° West 438 504 40,000  Level FlightAware Transoceanic
05:30PM 26.3608 -139.9870 248° West 438 504 40,000  Level FlightAware Transoceanic
05:31PM 26.3143 -140.1139 248° West 438 504 40,000  Level FlightAware Transoceanic
05:32PM 26.2677 -140.2407 248° West 438 504 40,000  Level FlightAware Transoceanic
05:33PM 26.2209 -140.3674 248° West 438 504 40,000  Level FlightAware Transoceanic
05:34PM 26.1856 -140.4516 248° West 439 505 40,000  Level FlightAware Transoceanic
05:35PM 26.1384 -140.5793 248° West 439 505 40,000  Level FlightAware Transoceanic
05:36PM 26.0910 -140.7068 248° West 439 505 40,000  Level FlightAware Transoceanic
05:37PM 26.0436 -140.8343 247° West 439 505 40,000  Level FlightAware Transoceanic
05:38PM 25.9960 -140.9617 247° West 439 505 40,000  Level FlightAware Transoceanic
05:39PM 25.9483 -141.0889 247° West 439 505 40,000  Level FlightAware Transoceanic
05:40PM 25.9006 -141.2161 247° West 439 505 40,000  Level FlightAware Transoceanic
05:41PM 25.8526 -141.3431 247° West 439 505 40,000  Level FlightAware Transoceanic
05:41PM 25.8167 -141.4333 247° West 440 506 40,000  Level Oakland Oceanic (ODAPS)
05:42PM 25.8046 -141.4701 247° West 439 505 40,000  Level FlightAware Transoceanic
05:43PM 25.7565 -141.5970 247° West 439 505 40,000  Level FlightAware Transoceanic
05:44PM 25.7083 -141.7237 247° West 439 505 40,000  Level FlightAware Transoceanic
05:45PM 25.6599 -141.8504 247° West 439 505 40,000  Level FlightAware Transoceanic
05:46PM 25.6115 -141.9769 247° West 439 505 40,000  Level FlightAware Transoceanic
05:47PM 25.5629 -142.1033 247° West 439 505 40,000  Level FlightAware Transoceanic
05:48PM 25.5238 -142.2009 247° West 440 506 40,000  Level FlightAware Transoceanic
05:49PM 25.4746 -142.3285 247° West 440 506 40,000  Level FlightAware Transoceanic
05:50PM 25.4254 -142.4559 247° West 440 506 40,000  Level FlightAware Transoceanic
05:51PM 25.3759 -142.5833 247° West 440 506 40,000  Level FlightAware Transoceanic
05:52PM 25.3264 -142.7105 247° West 440 506 40,000  Level FlightAware Transoceanic
05:53PM 25.2768 -142.8377 247° West 440 506 40,000  Level FlightAware Transoceanic
05:54PM 25.2270 -142.9647 247° West 440 506 40,000  Level FlightAware Transoceanic
05:55PM 25.1772 -143.0917 247° West 440 506 40,000  Level FlightAware Transoceanic
05:55PM 25.1500 -143.1667 246° West 442 509 40,000  Level Oakland Oceanic (ODAPS)
05:56PM 25.1272 -143.2185 246° West 440 506 40,000  Level FlightAware Transoceanic
05:57PM 25.0772 -143.3452 246° West 440 506 40,000  Level FlightAware Transoceanic
05:58PM 25.0270 -143.4719 246° West 440 506 40,000  Level FlightAware Transoceanic
05:59PM 24.9767 -143.5984 246° West 440 506 40,000  Level FlightAware Transoceanic
06:00PM 24.9263 -143.7248 246° West 440 506 40,000  Level FlightAware Transoceanic
06:01PM 24.8758 -143.8511 246° West 440 506 40,000  Level FlightAware Transoceanic
06:02PM 24.8384 -143.9479 246° West 442 509 40,000  Level FlightAware Transoceanic
06:03PM 24.7861 -144.0777 246° West 442 509 40,000  Level FlightAware Transoceanic
06:04PM 24.7336 -144.2074 246° West 442 509 40,000  Level FlightAware Transoceanic
06:05PM 24.6811 -144.3370 246° West 442 509 40,000  Level FlightAware Transoceanic
06:06PM 24.6284 -144.4665 246° West 442 509 40,000  Level FlightAware Transoceanic
06:07PM 24.5756 -144.5959 246° West 442 509 40,000  Level FlightAware Transoceanic
06:08PM 24.5228 -144.7251 246° West 442 509 40,000  Level FlightAware Transoceanic
06:09PM 24.4698 -144.8543 246° West 442 509 40,000  Level FlightAware Transoceanic
06:09PM 24.4500 -144.9000 246° West 388 447 40,000  Level Oakland Oceanic (ODAPS)
06:10PM 24.4167 -144.9833 246° West 442 509 40,000  Level FlightAware Transoceanic
06:10PM 24.4167 -144.9833 246° West 447 514 40,000  Level Oakland Oceanic (ODAPS)
06:11PM 24.3641 -145.1107 246° West 442 509 40,000  Level FlightAware Transoceanic
06:12PM 24.3114 -145.2379 246° West 442 509 40,000  Level FlightAware Transoceanic
06:13PM 24.2586 -145.3649 245° Southwest 442 509 40,000  Level FlightAware Transoceanic
06:14PM 24.2058 -145.4919 245° Southwest 442 509 40,000  Level FlightAware Transoceanic
06:15PM 24.1528 -145.6188 245° Southwest 442 509 40,000  Level FlightAware Transoceanic
06:16PM 24.0997 -145.7456 245° Southwest 388 447 40,000  Level FlightAware Transoceanic
06:17PM 24.0535 -145.8556 245° Southwest 447 514 40,000  Level FlightAware Transoceanic
06:18PM 24.0012 -145.9798 245° Southwest 447 514 40,000  Level FlightAware Transoceanic
06:19PM 23.9489 -146.1039 245° Southwest 447 514 40,000  Level FlightAware Transoceanic
06:20PM 23.8964 -146.2279 245° Southwest 447 514 40,000  Level FlightAware Transoceanic
06:21PM 23.8438 -146.3518 245° Southwest 447 514 40,000  Level FlightAware Transoceanic
06:22PM 23.7911 -146.4756 245° Southwest 447 514 40,000  Level FlightAware Transoceanic
06:23PM 23.7383 -146.5993 245° Southwest 447 514 40,000  Level FlightAware Transoceanic
06:23PM 23.7167 -146.6167 245° Southwest 447 514 40,000  Level Oakland Oceanic (ODAPS)
06:24PM 23.6855 -146.7229 245° Southwest 447 514 40,000  Level FlightAware Transoceanic
06:25PM 23.6325 -146.8464 245° Southwest 447 514 40,000  Level FlightAware Transoceanic
06:26PM 23.5794 -146.9698 245° Southwest 447 514 40,000  Level FlightAware Transoceanic
06:27PM 23.5262 -147.0931 245° Southwest 447 514 40,000  Level FlightAware Transoceanic
06:28PM 23.4730 -147.2163 245° Southwest 447 514 40,000  Level FlightAware Transoceanic
06:29PM 23.4011 -147.3540 245° Southwest 447 514 40,000  Level FlightAware Transoceanic
06:30PM 23.3482 -147.4765 245° Southwest 447 514 40,000  Level FlightAware Transoceanic
06:31PM 23.2952 -147.5990 245° Southwest 447 514 40,000  Level FlightAware Transoceanic
06:32PM 23.2421 -147.7213 245° Southwest 447 514 40,000  Level FlightAware Transoceanic
06:33PM 23.1888 -147.8436 245° Southwest 447 514 40,000  Level FlightAware Transoceanic
06:34PM 23.1355 -147.9657 245° Southwest 447 514 40,000  Level FlightAware Transoceanic
06:35PM 23.0821 -148.0878 245° Southwest 447 514 40,000  Level FlightAware Transoceanic
06:36PM 23.0286 -148.2098 244° Southwest 447 514 40,000  Level FlightAware Transoceanic
06:37PM 22.9750 -148.3316 244° Southwest 447 514 40,000  Level FlightAware Transoceanic
06:37PM 22.9833 -148.3333 244° Southwest 446 513 40,000  Level Oakland Oceanic (ODAPS)
06:38PM 22.9214 -148.4534 244° Southwest 447 514 40,000  Level FlightAware Transoceanic
06:39PM 22.8676 -148.5751 244° Southwest 447 514 40,000  Level FlightAware Transoceanic
06:40PM 22.8137 -148.6967 244° Southwest 447 514 40,000  Level FlightAware Transoceanic
06:41PM 22.7598 -148.8181 244° Southwest 447 514 40,000  Level FlightAware Transoceanic
06:42PM 22.7057 -148.9395 244° Southwest 447 514 40,000  Level FlightAware Transoceanic
06:43PM 22.6579 -149.0621 244° Southwest 446 513 40,000  Level FlightAware Transoceanic
06:44PM 22.6034 -149.1833 244° Southwest 446 513 40,000  Level FlightAware Transoceanic
06:45PM 22.5487 -149.3043 244° Southwest 446 513 40,000  Level FlightAware Transoceanic
06:46PM 22.4940 -149.4252 244° Southwest 446 513 40,000  Level FlightAware Transoceanic
06:47PM 22.4392 -149.5461 244° Southwest 446 513 40,000  Level FlightAware Transoceanic
06:48PM 22.3843 -149.6668 244° Southwest 446 513 40,000  Level FlightAware Transoceanic
06:49PM 22.3293 -149.7875 244° Southwest 446 513 40,000  Level FlightAware Transoceanic
06:50PM 22.2742 -149.9080 244° Southwest 446 513 40,000  Level FlightAware Transoceanic
06:51PM 22.2190 -150.0285 244° Southwest 446 513 40,000  Level FlightAware Transoceanic
06:51PM 22.2167 -150.0167 244° Southwest 448 516 40,000  Level Oakland Oceanic (ODAPS)
06:52PM 22.1637 -150.1488 244° Southwest 446 513 40,000  Level FlightAware Transoceanic
06:53PM 22.1084 -150.2691 244° Southwest 446 513 40,000  Level FlightAware Transoceanic
06:54PM 22.0529 -150.3893 244° Southwest 446 513 40,000  Level FlightAware Transoceanic
06:55PM 21.9974 -150.5094 243° Southwest 446 513 40,000  Level FlightAware Transoceanic
06:56PM 21.9418 -150.6294 243° Southwest 446 513 40,000  Level FlightAware Transoceanic
06:57PM 21.8849 -150.7434 244° Southwest 448 516 40,000  Level FlightAware Transoceanic
06:58PM 21.8293 -150.8642 244° Southwest 448 516 40,000  Level FlightAware Transoceanic
06:59PM 21.7736 -150.9848 244° Southwest 448 516 40,000  Level FlightAware Transoceanic
07:00PM 21.7178 -151.1054 244° Southwest 448 516 40,000  Level FlightAware Transoceanic
07:00PM 21.7167 -151.1167 243° Southwest 454 522 40,000  Level Oakland Oceanic (ODAPS)
07:01PM 21.6620 -151.2259 243° Southwest 448 516 40,000  Level FlightAware Transoceanic
07:01PM 21.6500 -151.2833 242° Southwest 450 518 40,000  Level Honolulu Center
07:02PM 21.6060 -151.3463 243° Southwest 448 516 40,000  Level FlightAware Transoceanic
07:02PM 21.6000 -151.3833 242° Southwest 460 529 40,000  Level Honolulu Center
07:03PM 21.5500 -151.4667 243° Southwest 448 516 40,000  Level FlightAware Transoceanic
07:03PM 21.5167 -151.5167 236° Southwest 450 518 40,000  Level Honolulu Center
07:04PM 21.4928 -151.5852 243° Southwest 448 516 40,000  Level FlightAware Transoceanic
07:05PM 21.4355 -151.7036 243° Southwest 448 516 40,000  Level FlightAware Transoceanic
07:06PM 21.3782 -151.8219 242° Southwest 454 522 40,000  Level FlightAware Transoceanic
07:06PM 21.4500 -151.9167 260° West 460 529 40,000  Level Honolulu Center
07:07PM 21.3207 -151.9401 242° Southwest 454 522 40,000  Level FlightAware Transoceanic
07:07PM 21.4333 -152.0500 262° West 460 529 40,000  Level Honolulu Center
07:08PM 21.4167 -152.1833 262° West 460 529 40,000  Level Honolulu Center
07:09PM 21.4000 -152.3167 262° West 450 518 40,000  Level Honolulu Center
07:11PM 21.3667 -152.5833 262° West 460 529 40,000  Level Honolulu Center
07:12PM 21.3500 -152.7167 262° West 450 518 40,000  Level Honolulu Center
07:13PM 21.3333 -152.8500 262° West 450 518 40,000  Level Honolulu Center
07:14PM 21.3167 -152.9833 262° West 450 518 40,000  Level Honolulu Center
07:15PM 21.3000 -153.1167 262° West 450 518 40,000  Level Honolulu Center
07:16PM 21.2833 -153.2667 263° West 450 518 40,000  Level Honolulu Center
07:17PM 21.2667 -153.4000 262° West 460 529 40,000  Level Honolulu Center
07:18PM 21.2500 -153.5333 262° West 460 529 40,000  Level Honolulu Center
07:19PM 21.2333 -153.6667 262° West 460 529 40,000  Level Honolulu Center
07:20PM 21.2167 -153.8000 262° West 450 518 40,000  Level Honolulu Center
07:21PM 21.2000 -153.9333 262° West 460 529 40,000  Level Honolulu Center
07:22PM 21.1833 -154.0667 262° West 450 518 40,000  Level Honolulu Center
07:23PM 21.1667 -154.2000 262° West 450 518 40,000  Level Honolulu Center
07:24PM 21.1333 -154.3667 258° West 450 518 40,000  Level Honolulu Center
07:25PM 21.1167 -154.5000 262° West 460 529 40,000  Level Honolulu Center
07:26PM 21.1000 -154.6333 262° West 450 518 40,000  Level Honolulu Center
07:27PM 21.0833 -154.7500 261° West 450 518 40,000  Level Honolulu Center
07:28PM 21.0667 -154.8667 261° West 440 506 40,000  Level Honolulu Center
07:29PM 21.0500 -155.0000 262° West 450 518 40,000  Level Honolulu Center
07:30PM 21.0333 -155.1333 262° West 450 518 40,000 -180 Level Honolulu Center
07:37PM 20.9070 -156.0160 262° West 455 524 38,700 -360 Descending FlightAware
07:37PM 20.8950 -156.1030 262° West 458 527 37,800 -1,680 Descending FlightAware
07:38PM 20.8820 -156.1920 261° West 455 524 36,500 -2,400 Descending FlightAware
07:39PM 20.8690 -156.2760 261° West 459 528 34,800 -2,760 Descending FlightAware
07:39PM 20.8540 -156.3800 261° West 469 540 32,700 -2,640 Descending FlightAware
07:40PM 20.8400 -156.4710 261° West 474 545 31,000 -2,280 Descending FlightAware
07:41PM 20.8270 -156.5590 261° West 468 539 29,700 -1,380 Descending FlightAware
07:41PM 20.8140 -156.6440 261° West 466 536 29,200 -1,320 Descending FlightAware
07:42PM 20.7960 -156.7600 261° West 475 547 27,900 -2,400 Descending FlightAware
07:43PM 20.7820 -156.8660 262° West 488 562 25,600 -2,640 Descending FlightAware
07:44PM 20.7820 -156.9600 270° West 474 545 24,200 -2,280 Descending FlightAware
07:44PM 20.7950 -157.0520 279° West 462 532 22,600 -2,640 Descending FlightAware
07:45PM 20.8210 -157.1420 287° West 460 529 20,700 -2,700 Descending FlightAware
07:46PM 20.8510 -157.2370 289° West 450 518 18,800 -2,040 Descending FlightAware
07:46PM 20.8810 -157.3290 289° West 429 494 17,700 -1,140 Descending FlightAware
07:47PM 20.9060 -157.4060 289° West 393 452 17,200 -1,020 Descending FlightAware
07:48PM 20.9280 -157.4750 289° West 352 405 16,400 -1,680 Descending FlightAware
07:49PM 20.9510 -157.5470 289° West 340 391 14,900 -2,340 Descending FlightAware
07:49PM 20.9710 -157.6110 289° West 330 380 13,100 -2,520 Descending FlightAware
07:50PM 20.9860 -157.6590 289° West 319 367 11,800 -2,640 Descending FlightAware
07:51PM 21.0090 -157.7320 289° West 317 365 9,600 -2,280 Descending FlightAware
07:51PM 21.0190 -157.7650 288° West 291 335 9,200 -1,560 Descending FlightAware
07:51PM 21.0310 -157.8030 289° West 284 327 8,200 -2,100 Descending FlightAware
07:52PM 21.0420 -157.8400 288° West 282 325 7,300 -1,680 Descending FlightAware
07:52PM 21.0490 -157.8600 291° West 277 319 7,100 -780 Descending FlightAware
07:53PM 21.0580 -157.8910 287° West 259 298 6,800 -900 Descending FlightAware
07:53PM 21.0690 -157.9260 289° West 254 292 6,300 -960 Descending FlightAware
07:53PM 21.0740 -157.9430 287° West 255 293 6,100 -960 Descending FlightAware
07:54PM 21.0850 -157.9810 287° West 251 289 5,600 -1,140 Descending FlightAware
07:54PM 21.0940 -158.0130 287° West 252 290 5,000 -1,440 Descending FlightAware
07:55PM 21.1040 -158.0350 296° West 247 284 4,400 -840 Descending FlightAware
07:55PM 21.1180 -158.0580 303° West 247 284 4,400  Level FlightAware